Time;durP1;ratioP1;P1;durP2;ratioP2;P2;SDS_P1;SDS_P2;PMS_P1;PMS_P2;Temp;Humidity;BMP_temperature;BMP_pressure;BME280_temperature;BME280_humidity;BME280_pressure;Samples;Min_cycle;Max_cycle;Signal;HPM_P1;HPM_P2
2022/01/12 00:00:51;;;;;;;;;64.50;42.25;;;;;;;;4647722;30;28877;-82
2022/01/12 00:03:16;;;;;;;;;64.75;43.75;;;;;;;;4647304;30;30085;-81
2022/01/12 00:05:43;;;;;;;;;55.50;42.25;;;;;;;;4646605;30;28639;-82
2022/01/12 00:08:08;;;;;;;;;67.25;46.00;;;;;;;;4647875;30;28745;-82
2022/01/12 00:10:34;;;;;;;;;66.00;44.25;;;;;;;;4649234;30;28294;-82
2022/01/12 00:12:59;;;;;;;;;64.50;41.75;;;;;;;;4648253;30;29356;-82
2022/01/12 00:15:24;;;;;;;;;65.00;47.25;;;;;;;;4648042;30;28328;-82
2022/01/12 00:17:50;;;;;;;;;67.75;45.50;;;;;;;;4649007;30;28440;-82
2022/01/12 00:20:15;;;;;;;;;63.00;47.00;;;;;;;;4648516;30;28328;-83
2022/01/12 00:22:41;;;;;;;;;67.33;43.67;;;;;;;;4647626;30;29233;-82
2022/01/12 00:33:13;;;;;;;;;58.25;41.50;;;;;;;;4647990;30;28543;-82
2022/01/12 00:35:51;;;;;;;;;61.75;43.50;;;;;;;;4647260;30;28498;-82
2022/01/12 00:38:17;;;;;;;;;53.75;35.75;;;;;;;;4648850;30;28614;-82
2022/01/12 00:40:43;;;;;;;;;48.25;39.50;;;;;;;;4648051;30;28390;-82
2022/01/12 00:43:09;;;;;;;;;59.50;42.75;;;;;;;;4646989;30;28454;-82
2022/01/12 00:45:37;;;;;;;;;64.75;43.00;;;;;;;;4647331;30;28290;-82
2022/01/12 00:48:02;;;;;;;;;62.25;39.75;;;;;;;;4646366;30;28262;-82
2022/01/12 00:50:28;;;;;;;;;62.25;44.75;;;;;;;;4648592;30;28302;-82
2022/01/12 00:52:53;;;;;;;;;57.00;42.33;;;;;;;;4646725;30;31015;-82
2022/01/12 00:55:19;;;;;;;;;68.50;40.25;;;;;;;;4646312;30;28538;-82
2022/01/12 00:57:44;;;;;;;;;66.50;36.25;;;;;;;;4648272;30;28454;-82
2022/01/12 01:00:10;;;;;;;;;62.50;43.50;;;;;;;;4646918;30;28488;-82
2022/01/12 01:02:35;;;;;;;;;64.50;42.50;;;;;;;;4646601;30;29895;-81
2022/01/12 01:05:01;;;;;;;;;51.67;42.33;;;;;;;;4648752;30;28312;-82
2022/01/12 01:07:27;;;;;;;;;49.75;36.75;;;;;;;;4650623;30;28337;-82
2022/01/12 01:10:03;;;;;;;;;56.67;42.33;;;;;;;;4650303;30;28461;-82
2022/01/12 01:12:29;;;;;;;;;60.50;37.75;;;;;;;;4650638;30;29051;-82
2022/01/12 01:15:06;;;;;;;;;53.50;43.25;;;;;;;;4650560;30;28287;-81
2022/01/12 01:25:38;;;;;;;;;58.00;42.00;;;;;;;;4650236;30;28348;-82
2022/01/12 01:28:04;;;;;;;;;65.50;43.25;;;;;;;;4650473;30;28623;-82
2022/01/12 01:30:30;;;;;;;;;70.00;45.25;;;;;;;;4649991;30;28467;-82
2022/01/12 01:32:58;;;;;;;;;57.00;41.75;;;;;;;;4650331;30;28439;-82
2022/01/12 01:35:27;;;;;;;;;58.50;40.25;;;;;;;;4650323;30;28504;-82
2022/01/12 01:37:52;;;;;;;;;64.00;45.25;;;;;;;;4650278;30;28269;-82
2022/01/12 01:40:17;;;;;;;;;63.00;42.00;;;;;;;;4649292;30;28257;-82
2022/01/12 01:53:29;;;;;;;;;67.75;43.50;;;;;;;;4650140;30;28353;-81
2022/01/12 01:55:55;;;;;;;;;59.75;43.00;;;;;;;;4650210;30;28396;-81
2022/01/12 01:58:20;;;;;;;;;56.25;41.25;;;;;;;;4650055;30;28364;-81
2022/01/12 02:00:45;;;;;;;;;66.00;43.33;;;;;;;;4649949;30;28558;-81
2022/01/12 02:03:11;;;;;;;;;74.50;43.75;;;;;;;;4647313;30;28321;-81
2022/01/12 02:05:38;;;;;;;;;67.50;42.25;;;;;;;;4649772;30;28442;-81
2022/01/12 02:08:03;;;;;;;;;53.00;36.25;;;;;;;;4648585;30;28945;-81
2022/01/12 02:10:28;;;;;;;;;65.00;47.50;;;;;;;;4650224;30;28499;-81
2022/01/12 02:12:54;;;;;;;;;63.67;41.00;;;;;;;;4649485;30;28441;-81
2022/01/12 02:15:22;;;;;;;;;63.00;44.33;;;;;;;;4649945;30;28531;-81
2022/01/12 02:36:58;;;;;;;;;67.75;45.25;;;;;;;;4649110;30;28569;-81
2022/01/12 02:42:28;;;;;;;;;66.00;44.50;;;;;;;;4617497;30;28671;-81
2022/01/12 02:55:49;;;;;;;;;63.50;43.25;;;;;;;;4649430;30;28767;-81
2022/01/12 02:58:14;;;;;;;;;71.67;46.33;;;;;;;;4648829;30;28387;-81
2022/01/12 03:01:06;;;;;;;;;63.25;42.25;;;;;;;;4649786;30;28257;-81
2022/01/12 03:03:35;;;;;;;;;58.75;41.75;;;;;;;;4646738;30;28519;-81
2022/01/12 03:06:03;;;;;;;;;56.00;43.50;;;;;;;;4647683;30;28630;-81
2022/01/12 03:08:36;;;;;;;;;74.75;45.25;;;;;;;;4648914;30;28668;-81
2022/01/12 03:11:02;;;;;;;;;57.75;42.25;;;;;;;;4648222;30;28346;-81
2022/01/12 03:13:27;;;;;;;;;64.25;45.00;;;;;;;;4647090;30;28718;-81
2022/01/12 03:15:52;;;;;;;;;65.00;44.00;;;;;;;;4649207;30;28320;-81
2022/01/12 03:18:18;;;;;;;;;62.67;40.67;;;;;;;;4646613;30;28476;-81
2022/01/12 03:20:45;;;;;;;;;53.50;42.00;;;;;;;;4648132;30;28507;-81
2022/01/12 03:23:10;;;;;;;;;44.25;23.75;;;;;;;;4647240;30;28608;-81
2022/01/12 03:25:36;;;;;;;;;53.00;38.25;;;;;;;;4646350;30;28565;-81
2022/01/12 03:28:03;;;;;;;;;55.00;38.67;;;;;;;;4647461;30;28557;-81
2022/01/12 03:30:36;;;;;;;;;69.75;47.50;;;;;;;;4647333;30;28722;-81
2022/01/12 03:33:11;;;;;;;;;48.00;38.50;;;;;;;;4649052;30;28660;-81
2022/01/12 03:35:50;;;;;;;;;62.25;42.75;;;;;;;;4648678;30;28335;-81
2022/01/12 03:38:21;;;;;;;;;61.50;41.50;;;;;;;;4647312;30;28362;-81
2022/01/12 03:40:47;;;;;;;;;62.00;43.00;;;;;;;;4647566;30;28462;-80
2022/01/12 03:43:12;;;;;;;;;58.00;39.25;;;;;;;;4645129;30;28849;-80
2022/01/12 03:45:38;;;;;;;;;57.67;41.33;;;;;;;;4646988;30;29346;-80
2022/01/12 03:48:04;;;;;;;;;48.75;41.00;;;;;;;;4645947;30;28440;-79
2022/01/12 03:50:29;;;;;;;;;66.25;44.00;;;;;;;;4648216;30;28394;-80
2022/01/12 03:52:54;;;;;;;;;59.00;42.67;;;;;;;;4648319;30;28337;-80
2022/01/12 03:55:19;;;;;;;;;53.00;40.67;;;;;;;;4648844;30;28467;-80
2022/01/12 03:57:44;;;;;;;;;63.33;36.33;;;;;;;;4647473;30;28243;-80
2022/01/12 04:00:10;;;;;;;;;60.00;39.33;;;;;;;;4649187;30;28241;-79
2022/01/12 04:02:35;;;;;;;;;58.25;41.25;;;;;;;;4647360;30;29809;-80
2022/01/12 04:05:11;;;;;;;;;50.33;41.00;;;;;;;;4648831;30;28298;-80
2022/01/12 04:10:21;;;;;;;;;46.75;36.75;;;;;;;;4647113;30;28539;-80
2022/01/12 04:12:46;;;;;;;;;55.50;40.75;;;;;;;;4648082;30;28550;-80
2022/01/12 04:15:11;;;;;;;;;45.00;34.50;;;;;;;;4647677;30;28420;-80
2022/01/12 04:17:36;;;;;;;;;42.33;35.33;;;;;;;;4647114;30;28505;-80
2022/01/12 04:20:03;;;;;;;;;50.33;38.00;;;;;;;;4647956;30;28705;-80
2022/01/12 04:25:12;;;;;;;;;61.00;43.25;;;;;;;;4648737;30;28300;-80
2022/01/12 04:27:39;;;;;;;;;48.25;40.25;;;;;;;;4646275;30;28448;-80
2022/01/12 04:30:05;;;;;;;;;55.75;41.75;;;;;;;;4648880;30;28491;-80
2022/01/12 04:32:31;;;;;;;;;63.25;40.50;;;;;;;;4647477;30;28554;-80
2022/01/12 04:34:56;;;;;;;;;58.00;36.50;;;;;;;;4647213;30;29393;-80
2022/01/12 04:37:21;;;;;;;;;69.33;42.33;;;;;;;;4645977;30;28455;-80
2022/01/12 04:39:46;;;;;;;;;54.67;37.67;;;;;;;;4649542;30;28337;-80
2022/01/12 04:42:12;;;;;;;;;57.00;38.67;;;;;;;;4649321;30;28625;-80
2022/01/12 04:44:43;;;;;;;;;64.25;41.00;;;;;;;;4649501;30;28528;-80
2022/01/12 04:47:15;;;;;;;;;50.50;34.00;;;;;;;;4650946;30;28574;-80
2022/01/12 04:49:47;;;;;;;;;48.25;37.00;;;;;;;;4649838;30;28579;-80
2022/01/12 04:52:13;;;;;;;;;61.00;38.00;;;;;;;;4649452;30;28456;-80
2022/01/12 04:54:39;;;;;;;;;51.75;36.00;;;;;;;;4650745;30;28489;-80
2022/01/12 04:57:04;;;;;;;;;49.33;38.33;;;;;;;;4649842;30;28339;-80
2022/01/12 04:59:31;;;;;;;;;46.33;38.33;;;;;;;;4651005;30;28455;-80
2022/01/12 05:02:10;;;;;;;;;49.50;37.50;;;;;;;;4649107;30;28476;-80
2022/01/12 05:07:29;;;;;;;;;65.75;42.75;;;;;;;;4651114;30;28529;-80
2022/01/12 05:15:16;;;;;;;;;61.00;38.25;;;;;;;;4650013;30;28510;-80
2022/01/12 05:17:42;;;;;;;;;57.25;36.00;;;;;;;;4650689;30;28515;-82
2022/01/12 05:20:07;;;;;;;;;61.00;38.00;;;;;;;;4651019;30;28416;-80
2022/01/12 05:22:32;;;;;;;;;50.25;36.25;;;;;;;;4649135;30;28574;-80
2022/01/12 05:24:57;;;;;;;;;48.33;35.67;;;;;;;;4655636;30;28497;-80
2022/01/12 05:27:23;;;;;;;;;53.75;37.50;;;;;;;;4648187;30;29456;-80
2022/01/12 05:29:48;;;;;;;;;58.00;42.00;;;;;;;;4651176;30;28419;-80
2022/01/12 05:32:13;;;;;;;;;63.75;41.50;;;;;;;;4648834;30;28589;-80
2022/01/12 05:34:39;;;;;;;;;59.75;36.50;;;;;;;;4650878;30;28474;-80
2022/01/12 05:37:04;;;;;;;;;53.25;41.25;;;;;;;;4649441;30;28304;-80
2022/01/12 05:39:29;;;;;;;;;55.00;39.33;;;;;;;;4650176;30;28384;-80
2022/01/12 05:41:55;;;;;;;;;51.00;34.00;;;;;;;;4647973;30;28332;-80
2022/01/12 05:44:22;;;;;;;;;55.00;41.00;;;;;;;;4647357;30;29651;-81
2022/01/12 05:46:48;;;;;;;;;54.25;35.75;;;;;;;;4650125;30;28640;-81
2022/01/12 05:51:57;;;;;;;;;60.25;42.00;;;;;;;;4649652;30;28410;-82
2022/01/12 05:54:22;;;;;;;;;64.00;40.67;;;;;;;;4650286;30;28470;-81
2022/01/12 05:56:48;;;;;;;;;56.67;41.00;;;;;;;;4648586;30;28348;-81
2022/01/12 05:59:13;;;;;;;;;59.25;39.50;;;;;;;;4647608;30;28556;-82
2022/01/12 06:01:39;;;;;;;;;51.75;41.75;;;;;;;;4648995;30;28429;-81
2022/01/12 06:04:04;;;;;;;;;61.25;38.50;;;;;;;;4649663;30;28566;-82
2022/01/12 06:06:29;;;;;;;;;63.50;42.50;;;;;;;;4648163;30;27874;-82
2022/01/12 06:08:54;;;;;;;;;56.50;38.00;;;;;;;;4648628;30;28488;-82
2022/01/12 06:11:20;;;;;;;;;61.00;42.00;;;;;;;;4645123;30;28812;-81
2022/01/12 06:13:45;;;;;;;;;58.75;47.50;;;;;;;;4644116;30;29353;-82
2022/01/12 06:16:10;;;;;;;;;50.75;30.75;;;;;;;;4645167;30;28716;-81
2022/01/12 06:18:36;;;;;;;;;49.33;36.33;;;;;;;;4647188;30;28669;-81
2022/01/12 06:21:01;;;;;;;;;63.67;38.67;;;;;;;;4648234;30;28408;-81
2022/01/12 06:23:26;;;;;;;;;59.00;41.00;;;;;;;;4647468;30;29852;-81
2022/01/12 06:25:51;;;;;;;;;62.00;37.67;;;;;;;;4649365;30;28491;-81
2022/01/12 06:33:32;;;;;;;;;57.50;41.75;;;;;;;;4649432;30;28374;-82
2022/01/12 06:35:57;;;;;;;;;47.25;35.75;;;;;;;;4649638;30;28337;-82
2022/01/12 06:38:23;;;;;;;;;63.67;38.00;;;;;;;;4648752;30;28339;-82
2022/01/12 06:40:48;;;;;;;;;50.67;36.67;;;;;;;;4647148;30;28754;-81
2022/01/12 06:43:13;;;;;;;;;51.67;37.00;;;;;;;;4647818;30;28517;-83
2022/01/12 06:45:39;;;;;;;;;47.00;34.50;;;;;;;;4649558;30;28431;-85
2022/01/12 06:48:08;;;;;;;;;47.50;38.50;;;;;;;;4649587;30;28446;-83
2022/01/12 06:50:33;;;;;;;;;51.25;38.00;;;;;;;;4647969;30;28492;-82
2022/01/12 06:52:58;;;;;;;;;47.75;31.50;;;;;;;;4647213;30;29279;-82
2022/01/12 06:55:25;;;;;;;;;54.33;41.33;;;;;;;;4647001;30;28919;-82
2022/01/12 06:57:50;;;;;;;;;56.00;35.00;;;;;;;;4649372;30;28246;-81
2022/01/12 07:00:15;;;;;;;;;56.33;40.67;;;;;;;;4649388;30;28540;-83
2022/01/12 07:02:41;;;;;;;;;51.50;37.50;;;;;;;;4648681;30;30352;-82
2022/01/12 07:05:06;;;;;;;;;45.33;34.00;;;;;;;;4650095;30;28248;-82
2022/01/12 07:07:31;;;;;;;;;53.75;39.75;;;;;;;;4649866;30;28232;-82
2022/01/12 07:09:57;;;;;;;;;56.67;40.67;;;;;;;;4649126;30;28326;-82
2022/01/12 07:12:22;;;;;;;;;50.33;38.67;;;;;;;;4650089;30;28343;-81
2022/01/12 07:14:47;;;;;;;;;37.33;27.33;;;;;;;;4648558;30;28370;-81
2022/01/12 07:17:13;;;;;;;;;45.00;31.00;;;;;;;;4650036;30;28346;-82
2022/01/12 07:19:38;;;;;;;;;53.75;35.00;;;;;;;;4649979;30;28308;-81
2022/01/12 07:22:03;;;;;;;;;54.00;34.00;;;;;;;;4650498;30;28429;-81
2022/01/12 07:24:28;;;;;;;;;63.00;35.67;;;;;;;;4648623;30;28646;-81
2022/01/12 07:26:54;;;;;;;;;59.67;42.00;;;;;;;;4649925;30;28476;-82
2022/01/12 07:29:19;;;;;;;;;55.67;37.00;;;;;;;;4649815;30;28471;-81
2022/01/12 07:31:46;;;;;;;;;55.25;37.75;;;;;;;;4649611;30;28356;-81
2022/01/12 07:34:13;;;;;;;;;58.00;33.75;;;;;;;;4649806;30;28353;-82
2022/01/12 07:36:38;;;;;;;;;65.00;39.75;;;;;;;;4646669;30;28491;-82
2022/01/12 07:39:03;;;;;;;;;57.25;39.75;;;;;;;;4642332;30;28464;-82
2022/01/12 07:41:29;;;;;;;;;56.00;40.33;;;;;;;;4645358;30;28444;-83
2022/01/12 07:43:54;;;;;;;;;56.50;38.50;;;;;;;;4649624;30;28304;-82
2022/01/12 07:46:20;;;;;;;;;66.67;41.00;;;;;;;;4649599;30;28329;-82
2022/01/12 07:48:45;;;;;;;;;59.33;37.33;;;;;;;;4649474;30;28571;-82
2022/01/12 07:51:10;;;;;;;;;55.00;40.00;;;;;;;;4649441;30;28522;-83
2022/01/12 07:53:35;;;;;;;;;57.67;37.33;;;;;;;;4652352;30;28237;-82
2022/01/12 07:56:01;;;;;;;;;59.67;40.33;;;;;;;;4647498;30;28342;-82
2022/01/12 07:58:26;;;;;;;;;67.00;43.25;;;;;;;;4646193;30;28426;-82
2022/01/12 08:00:52;;;;;;;;;51.67;37.00;;;;;;;;4646287;30;30532;-82
2022/01/12 08:03:20;;;;;;;;;55.75;40.00;;;;;;;;4647356;30;28561;-82
2022/01/12 08:05:45;;;;;;;;;57.00;37.25;;;;;;;;4648775;30;28728;-82
2022/01/12 08:08:12;;;;;;;;;59.25;40.25;;;;;;;;4649313;30;28546;-82
2022/01/12 08:10:37;;;;;;;;;47.75;36.50;;;;;;;;4648212;30;29645;-82
2022/01/12 08:13:03;;;;;;;;;62.67;43.67;;;;;;;;4649208;30;28348;-82
2022/01/12 08:15:28;;;;;;;;;63.00;43.67;;;;;;;;4648108;30;28362;-82
2022/01/12 08:17:53;;;;;;;;;49.25;35.50;;;;;;;;4649341;30;28589;-83
2022/01/12 08:20:22;;;;;;;;;54.50;34.50;;;;;;;;4648322;30;28516;-82
2022/01/12 08:22:57;;;;;;;;;46.25;35.00;;;;;;;;4649023;30;29340;-83
2022/01/12 08:25:23;;;;;;;;;64.75;41.75;;;;;;;;4651728;30;28445;-81
2022/01/12 08:27:50;;;;;;;;;57.25;39.00;;;;;;;;4650621;30;28926;-81
2022/01/12 08:30:18;;;;;;;;;57.00;36.00;;;;;;;;4653120;30;28576;-82
2022/01/12 08:32:45;;;;;;;;;50.25;38.25;;;;;;;;4660032;30;27872;-81
2022/01/12 08:35:11;;;;;;;;;48.25;34.00;;;;;;;;4654202;30;28868;-82
2022/01/12 08:37:36;;;;;;;;;57.75;36.25;;;;;;;;4649386;30;28345;-82
2022/01/12 08:40:02;;;;;;;;;62.75;33.50;;;;;;;;4654814;30;29506;-80
2022/01/12 08:42:27;;;;;;;;;64.00;42.00;;;;;;;;4657658;30;28406;-81
2022/01/12 08:44:53;;;;;;;;;58.33;38.67;;;;;;;;4658871;30;28234;-81
2022/01/12 08:47:18;;;;;;;;;62.50;42.50;;;;;;;;4654432;30;28360;-82
2022/01/12 08:49:44;;;;;;;;;52.75;35.50;;;;;;;;4647442;30;30732;-82
2022/01/12 08:52:09;;;;;;;;;70.75;45.75;;;;;;;;4646228;30;29291;-81
2022/01/12 08:54:35;;;;;;;;;53.50;41.25;;;;;;;;4646611;30;28281;-82
2022/01/12 08:57:00;;;;;;;;;58.25;41.50;;;;;;;;4648432;30;28759;-82
2022/01/12 08:59:27;;;;;;;;;54.00;40.00;;;;;;;;4646104;30;29878;-82
2022/01/12 09:01:52;;;;;;;;;63.75;43.50;;;;;;;;4648566;30;28685;-82
2022/01/12 09:04:17;;;;;;;;;63.00;42.00;;;;;;;;4647296;30;28535;-82
2022/01/12 09:06:42;;;;;;;;;62.00;43.67;;;;;;;;4648679;30;28433;-82
2022/01/12 09:09:08;;;;;;;;;65.75;47.50;;;;;;;;4646973;30;29701;-82
2022/01/12 09:11:33;;;;;;;;;61.33;43.00;;;;;;;;4646790;30;28533;-82
2022/01/12 09:13:58;;;;;;;;;70.75;46.00;;;;;;;;4646939;30;28971;-82
2022/01/12 09:16:24;;;;;;;;;63.50;44.00;;;;;;;;4647942;30;28702;-82
2022/01/12 09:18:51;;;;;;;;;71.75;48.50;;;;;;;;4648062;30;28488;-82
2022/01/12 09:21:17;;;;;;;;;75.75;51.75;;;;;;;;4646782;30;28592;-82
2022/01/12 09:23:44;;;;;;;;;60.33;45.33;;;;;;;;4646187;30;28527;-82
2022/01/12 09:26:10;;;;;;;;;73.00;49.50;;;;;;;;4657740;30;28506;-82
2022/01/12 09:28:35;;;;;;;;;79.00;50.00;;;;;;;;4649785;30;29790;-82
2022/01/12 09:31:00;;;;;;;;;68.50;44.00;;;;;;;;4649642;30;28691;-81
2022/01/12 09:33:26;;;;;;;;;69.00;46.00;;;;;;;;4652187;30;28570;-81
2022/01/12 09:35:53;;;;;;;;;74.75;51.50;;;;;;;;4650053;30;28530;-81
2022/01/12 09:38:19;;;;;;;;;77.25;49.50;;;;;;;;4649545;30;28990;-83
2022/01/12 09:40:44;;;;;;;;;73.25;50.50;;;;;;;;4649932;30;28345;-83
2022/01/12 09:43:10;;;;;;;;;71.25;50.75;;;;;;;;4651193;30;28337;-83
2022/01/12 09:45:37;;;;;;;;;74.75;47.75;;;;;;;;4650133;30;28743;-83
2022/01/12 09:48:02;;;;;;;;;73.75;53.00;;;;;;;;4648196;30;28363;-83
2022/01/12 10:02:25;;;;;;;;;58.00;43.50;;;;;;;;178154;27;130558803;-83
2022/01/12 10:08:53;;;;;;;;;27.00;13.00;;;;;;;;3;130567042;136885496;-84
2022/01/12 10:15:34;;;;;;;;;29.00;25.50;;;;;;;;3;130557350;139569898;-83
2022/01/12 10:22:01;;;;;;;;;;;;;;;;;;3;117048789;130557174;-84
2022/01/12 10:28:21;;;;;;;;;52.00;38.00;;;;;;;;3;117064527;130556221;-84
2022/01/12 10:34:49;;;;;;;;;16.00;16.00;;;;;;;;3;130565824;139557697;-85
2022/01/12 10:41:30;;;;;;;;;29.50;20.00;;;;;;;;3;130555334;139568002;-84
2022/01/12 10:47:57;;;;;;;;;;;;;;;;;;3;117048437;130553933;-84
2022/01/12 10:54:17;;;;;;;;;60.00;41.00;;;;;;;;3;117064889;130555597;-84
2022/01/12 11:00:47;;;;;;;;;19.50;15.50;;;;;;;;3;130562895;139557367;-84
2022/01/12 11:07:29;;;;;;;;;27.00;12.50;;;;;;;;3;130511634;139569068;-84
2022/01/12 11:13:57;;;;;;;;;;;;;;;;;;3;117048012;130553897;-84
2022/01/12 11:20:26;;;;;;;;;40.00;36.00;;;;;;;;3;117064520;130556738;-85
2022/01/12 11:26:53;;;;;;;;;27.00;15.50;;;;;;;;3;130560329;139557566;-84
2022/01/12 11:33:36;;;;;;;;;28.50;27.50;;;;;;;;3;130554361;139567615;-85
2022/01/12 11:40:04;;;;;;;;;;;;;;;;;;3;117050978;130557790;-86
2022/01/12 11:46:24;;;;;;;;;58.00;41.50;;;;;;;;3;117066103;130554812;-87
2022/01/12 11:52:58;;;;;;;;;53.00;20.50;;;;;;;;3;130565163;139558959;-86
2022/01/12 11:59:51;;;;;;;;;15.00;15.00;;;;;;;;3;130556709;139568579;-86
2022/01/12 12:06:18;;;;;;;;;;;;;;;;;;3;117051520;130557146;-84
2022/01/12 12:12:37;;;;;;;;;57.00;46.50;;;;;;;;3;117063479;130559104;-87
2022/01/12 12:19:05;;;;;;;;;33.00;25.50;;;;;;;;3;130563437;139558240;-87
2022/01/12 12:25:46;;;;;;;;;23.00;22.50;;;;;;;;3;130552385;139568167;-85
2022/01/12 12:32:13;;;;;;;;;;;;;;;;;;3;117048862;130552989;-83
2022/01/12 12:38:32;;;;;;;;;51.50;42.00;;;;;;;;3;117064536;130559730;-81
2022/01/12 12:45:02;;;;;;;;;33.00;28.50;;;;;;;;3;130563692;139557193;-84
2022/01/12 12:51:43;;;;;;;;;27.00;26.50;;;;;;;;3;130556253;139570820;-83
2022/01/12 12:58:09;;;;;;;;;;;;;;;;;;3;117050078;129177881;-83
2022/01/12 13:04:27;;;;;;;;;47.50;35.00;;;;;;;;3;117064911;130557283;-84
2022/01/12 13:10:55;;;;;;;;;15.00;15.00;;;;;;;;3;130563917;139559275;-83
2022/01/12 14:38:01;;;;;;;;;;;;;;;;;;3;121644045;139611950;-86
2022/01/12 14:58:08;;;;;;;;;19.00;19.00;;;;;;;;3;130665978;139663631;-85
2022/01/12 17:13:15;;;;;;;;;20.00;14.50;;;;;;;;3;130565271;139560726;-89
2022/01/12 17:26:39;;;;;;;;;;;;;;;;;;3;117069746;121548641;-89
2022/01/12 17:40:10;;;;;;;;;12.50;12.50;;;;;;;;3;130459779;139550950;-88
2022/01/12 17:53:51;;;;;;;;;;;;;;;;;;;;;
2022/01/12 18:07:25;;;;;;;;;9.00;7.00;;;;;;;;3;130567421;139557637;-89
2022/01/12 18:14:42;;;;;;;;;;;;;;;;;;;;;
2022/01/12 18:21:01;;;;;;;;;;;;;;;;;;3;117051296;130555927;-87
2022/01/12 18:34:15;;;;;;;;;14.00;12.50;;;;;;;;3;130563894;139573949;-88
2022/01/12 18:41:08;;;;;;;;;13.00;13.00;;;;;;;;3;130552110;139566542;-93
2022/01/12 18:47:39;;;;;;;;;;;;;;;;;;3;117051425;130556150;-89
2022/01/12 18:54:55;;;;;;;;;;;;;;;;;;;;;
2022/01/12 19:08:42;;;;;;;;;7.00;7.00;;;;;;;;3;130556994;139568005;-88
2022/01/12 19:15:12;;;;;;;;;;;;;;;;;;3;117048872;130552545;-89
2022/01/12 19:21:30;;;;;;;;;33.50;27.50;;;;;;;;3;117065008;130222561;-91
2022/01/12 19:27:58;;;;;;;;;13.00;7.50;;;;;;;;3;130563487;139560169;-90
2022/01/12 19:34:38;;;;;;;;;23.00;11.00;;;;;;;;3;130553980;139566614;-86
2022/01/12 19:41:05;;;;;;;;;;;;;;;;;;3;116770550;129661721;-88
2022/01/12 19:47:23;;;;;;;;;42.00;34.00;;;;;;;;3;117063558;130557326;-88
2022/01/12 19:53:57;;;;;;;;;8.00;8.00;;;;;;;;3;130563681;139558387;-88
2022/01/12 20:00:57;;;;;;;;;12.00;12.00;;;;;;;;3;130554411;139566188;-88
2022/01/12 20:07:24;;;;;;;;;;;;;;;;;;3;117049750;130557727;-88
2022/01/12 20:13:45;;;;;;;;;40.00;32.00;;;;;;;;3;116197217;130553497;-88
2022/01/12 20:27:19;;;;;;;;;14.00;14.00;;;;;;;;3;130553518;139566400;-91
2022/01/12 20:33:48;;;;;;;;;;;;;;;;;;3;117052151;130554444;-86
2022/01/12 20:40:09;;;;;;;;;54.50;36.00;;;;;;;;3;117067583;130557918;-86
2022/01/12 20:46:37;;;;;;;;;46.50;24.00;;;;;;;;3;130567148;139557602;-87
2022/01/12 21:00:08;;;;;;;;;;;;;;;;;;3;117048888;130443879;-88
2022/01/12 22:23:57;;;;;;;;;;;;;;;;;;;;;
2022/01/12 22:30:55;;;;;;;;;;;;;;;;;;;;;
2022/01/12 22:44:58;;;;;;;;;20.00;8.50;;;;;;;;3;130560050;139504873;-86
2022/01/12 22:51:33;;;;;;;;;;;;;;;;;;;;;
2022/01/12 22:58:07;;;;;;;;;;;;;;;;;;;;;
2022/01/12 23:05:15;;;;;;;;;;;;;;;;;;;;;
2022/01/12 23:12:01;;;;;;;;;6.50;6.50;;;;;;;;3;130556849;139566909;-85
2022/01/12 23:32:42;;;;;;;;;;;;;;;;;;;;;
